sensor_id;sensor_type;location;lat;lon;timestamp;temperature;humidity
22742;DHT22;11538;48.884;8.696;2023-02-12T00:01:23;5.80;99.90
22742;DHT22;11538;48.884;8.696;2023-02-12T00:03:51;5.80;99.90
22742;DHT22;11538;48.884;8.696;2023-02-12T00:06:18;5.80;99.90
22742;DHT22;11538;48.884;8.696;2023-02-12T00:08:47;5.80;99.90
22742;DHT22;11538;48.884;8.696;2023-02-12T00:11:16;5.80;99.90
22742;DHT22;11538;48.884;8.696;2023-02-12T00:13:45;5.80;99.90
22742;DHT22;11538;48.884;8.696;2023-02-12T00:16:13;5.70;99.90
22742;DHT22;11538;48.884;8.696;2023-02-12T00:18:42;5.70;99.90
22742;DHT22;11538;48.884;8.696;2023-02-12T00:21:10;5.70;99.90
22742;DHT22;11538;48.884;8.696;2023-02-12T00:23:38;5.70;99.90
22742;DHT22;11538;48.884;8.696;2023-02-12T00:26:07;5.70;99.90
22742;DHT22;11538;48.884;8.696;2023-02-12T00:28:35;5.70;99.90
22742;DHT22;11538;48.884;8.696;2023-02-12T00:31:03;5.70;99.90
22742;DHT22;11538;48.884;8.696;2023-02-12T00:33:31;5.70;99.90
22742;DHT22;11538;48.884;8.696;2023-02-12T00:35:58;5.60;99.90
22742;DHT22;11538;48.884;8.696;2023-02-12T00:38:25;5.70;99.90
22742;DHT22;11538;48.884;8.696;2023-02-12T00:40:52;5.70;99.90
22742;DHT22;11538;48.884;8.696;2023-02-12T00:43:19;5.70;99.90
22742;DHT22;11538;48.884;8.696;2023-02-12T00:45:46;5.70;99.90
22742;DHT22;11538;48.884;8.696;2023-02-12T00:48:13;5.70;99.90
22742;DHT22;11538;48.884;8.696;2023-02-12T00:50:44;5.70;99.90
22742;DHT22;11538;48.884;8.696;2023-02-12T00:53:11;5.70;99.90
22742;DHT22;11538;48.884;8.696;2023-02-12T00:55:39;5.70;99.90
22742;DHT22;11538;48.884;8.696;2023-02-12T00:58:06;5.60;99.90
22742;DHT22;11538;48.884;8.696;2023-02-12T01:00:33;5.60;99.90
22742;DHT22;11538;48.884;8.696;2023-02-12T01:03:02;5.60;99.90
22742;DHT22;11538;48.884;8.696;2023-02-12T01:05:30;5.60;99.90
22742;DHT22;11538;48.884;8.696;2023-02-12T01:07:57;5.70;99.90
22742;DHT22;11538;48.884;8.696;2023-02-12T01:10:24;5.70;99.90
22742;DHT22;11538;48.884;8.696;2023-02-12T01:12:51;5.70;99.90
22742;DHT22;11538;48.884;8.696;2023-02-12T01:15:18;5.70;99.90
22742;DHT22;11538;48.884;8.696;2023-02-12T01:17:45;5.70;99.90
22742;DHT22;11538;48.884;8.696;2023-02-12T01:20:13;5.70;99.90
22742;DHT22;11538;48.884;8.696;2023-02-12T01:22:44;5.60;99.90
22742;DHT22;11538;48.884;8.696;2023-02-12T01:25:11;5.70;99.90
22742;DHT22;11538;48.884;8.696;2023-02-12T01:27:38;5.70;99.90
22742;DHT22;11538;48.884;8.696;2023-02-12T01:30:06;5.70;99.90
22742;DHT22;11538;48.884;8.696;2023-02-12T01:32:36;5.70;99.90
22742;DHT22;11538;48.884;8.696;2023-02-12T01:35:03;5.70;99.90
22742;DHT22;11538;48.884;8.696;2023-02-12T01:37:36;5.70;99.90
22742;DHT22;11538;48.884;8.696;2023-02-12T01:40:04;5.70;99.90
22742;DHT22;11538;48.884;8.696;2023-02-12T01:42:32;5.70;99.90
22742;DHT22;11538;48.884;8.696;2023-02-12T01:47:42;5.70;99.90
22742;DHT22;11538;48.884;8.696;2023-02-12T01:50:11;5.70;99.90
22742;DHT22;11538;48.884;8.696;2023-02-12T01:52:42;5.70;99.90
22742;DHT22;11538;48.884;8.696;2023-02-12T01:55:12;5.60;99.90
22742;DHT22;11538;48.884;8.696;2023-02-12T01:57:41;5.60;99.90
22742;DHT22;11538;48.884;8.696;2023-02-12T02:00:12;5.60;99.90
22742;DHT22;11538;48.884;8.696;2023-02-12T02:02:44;5.60;99.90
22742;DHT22;11538;48.884;8.696;2023-02-12T02:05:19;5.60;99.90
22742;DHT22;11538;48.884;8.696;2023-02-12T02:07:50;5.60;99.90
22742;DHT22;11538;48.884;8.696;2023-02-12T02:10:19;5.60;99.90
22742;DHT22;11538;48.884;8.696;2023-02-12T02:12:45;5.60;99.90
22742;DHT22;11538;48.884;8.696;2023-02-12T02:15:31;5.60;99.90
22742;DHT22;11538;48.884;8.696;2023-02-12T02:18:05;5.60;99.90
22742;DHT22;11538;48.884;8.696;2023-02-12T02:23:51;5.60;99.90
22742;DHT22;11538;48.884;8.696;2023-02-12T02:26:27;5.60;99.90
22742;DHT22;11538;48.884;8.696;2023-02-12T02:29:19;5.50;99.90
22742;DHT22;11538;48.884;8.696;2023-02-12T02:32:13;5.50;99.90
22742;DHT22;11538;48.884;8.696;2023-02-12T02:37:38;5.50;99.90
22742;DHT22;11538;48.884;8.696;2023-02-12T02:40:22;5.50;99.90
22742;DHT22;11538;48.884;8.696;2023-02-12T02:45:44;5.60;99.90
22742;DHT22;11538;48.884;8.696;2023-02-12T02:50:55;5.60;99.90
22742;DHT22;11538;48.884;8.696;2023-02-12T02:53:30;5.60;99.90
22742;DHT22;11538;48.884;8.696;2023-02-12T02:56:01;5.60;99.90
22742;DHT22;11538;48.884;8.696;2023-02-12T02:58:36;5.60;99.90
22742;DHT22;11538;48.884;8.696;2023-02-12T03:01:12;5.60;99.90
22742;DHT22;11538;48.884;8.696;2023-02-12T03:03:46;5.60;99.90
22742;DHT22;11538;48.884;8.696;2023-02-12T03:08:57;5.60;99.90
22742;DHT22;11538;48.884;8.696;2023-02-12T03:11:29;5.60;99.90
22742;DHT22;11538;48.884;8.696;2023-02-12T03:14:03;5.60;99.90
22742;DHT22;11538;48.884;8.696;2023-02-12T03:16:39;5.70;99.90
22742;DHT22;11538;48.884;8.696;2023-02-12T03:19:16;5.70;99.90
22742;DHT22;11538;48.884;8.696;2023-02-12T03:21:47;5.70;99.90
22742;DHT22;11538;48.884;8.696;2023-02-12T03:24:31;5.70;99.90
22742;DHT22;11538;48.884;8.696;2023-02-12T03:27:06;5.70;99.90
22742;DHT22;11538;48.884;8.696;2023-02-12T03:29:36;5.70;99.90
22742;DHT22;11538;48.884;8.696;2023-02-12T03:37:28;5.70;99.90
22742;DHT22;11538;48.884;8.696;2023-02-12T03:40:12;5.70;99.90
22742;DHT22;11538;48.884;8.696;2023-02-12T03:42:57;5.70;99.90
22742;DHT22;11538;48.884;8.696;2023-02-12T03:48:23;5.60;99.90
22742;DHT22;11538;48.884;8.696;2023-02-12T03:50:58;5.60;99.90
22742;DHT22;11538;48.884;8.696;2023-02-12T03:53:40;5.60;99.90
22742;DHT22;11538;48.884;8.696;2023-02-12T03:56:11;5.60;99.90
22742;DHT22;11538;48.884;8.696;2023-02-12T03:58:41;5.60;99.90
22742;DHT22;11538;48.884;8.696;2023-02-12T04:01:09;5.60;99.90
22742;DHT22;11538;48.884;8.696;2023-02-12T04:03:37;5.60;99.90
22742;DHT22;11538;48.884;8.696;2023-02-12T04:06:04;5.60;99.90
22742;DHT22;11538;48.884;8.696;2023-02-12T04:08:43;5.60;99.90
22742;DHT22;11538;48.884;8.696;2023-02-12T04:11:21;5.60;99.90
22742;DHT22;11538;48.884;8.696;2023-02-12T04:17:01;5.70;99.90
22742;DHT22;11538;48.884;8.696;2023-02-12T04:22:54;5.70;99.90
22742;DHT22;11538;48.884;8.696;2023-02-12T04:25:51;5.70;99.90
22742;DHT22;11538;48.884;8.696;2023-02-12T04:33:34;5.60;99.90
22742;DHT22;11538;48.884;8.696;2023-02-12T04:36:14;5.60;99.90
22742;DHT22;11538;48.884;8.696;2023-02-12T04:39:28;5.60;99.90
22742;DHT22;11538;48.884;8.696;2023-02-12T04:41:37;5.60;99.90
22742;DHT22;11538;48.884;8.696;2023-02-12T04:44:15;5.60;99.90
22742;DHT22;11538;48.884;8.696;2023-02-12T04:46:43;5.60;99.90
22742;DHT22;11538;48.884;8.696;2023-02-12T04:49:14;5.60;99.90
22742;DHT22;11538;48.884;8.696;2023-02-12T04:51:42;5.70;99.90
22742;DHT22;11538;48.884;8.696;2023-02-12T04:54:09;5.70;99.90
22742;DHT22;11538;48.884;8.696;2023-02-12T04:56:36;5.70;99.90
22742;DHT22;11538;48.884;8.696;2023-02-12T04:59:03;5.70;99.90
22742;DHT22;11538;48.884;8.696;2023-02-12T05:01:32;5.70;99.90
22742;DHT22;11538;48.884;8.696;2023-02-12T05:04:00;5.70;99.90
22742;DHT22;11538;48.884;8.696;2023-02-12T05:06:27;5.70;99.90
22742;DHT22;11538;48.884;8.696;2023-02-12T05:08:55;5.70;99.90
22742;DHT22;11538;48.884;8.696;2023-02-12T05:11:23;5.70;99.90
22742;DHT22;11538;48.884;8.696;2023-02-12T05:13:50;5.70;99.90
22742;DHT22;11538;48.884;8.696;2023-02-12T05:16:19;5.70;99.90
22742;DHT22;11538;48.884;8.696;2023-02-12T05:18:47;5.70;99.90
22742;DHT22;11538;48.884;8.696;2023-02-12T05:21:14;5.70;99.90
22742;DHT22;11538;48.884;8.696;2023-02-12T05:23:41;5.70;99.90
22742;DHT22;11538;48.884;8.696;2023-02-12T05:26:12;5.70;99.90
22742;DHT22;11538;48.884;8.696;2023-02-12T05:28:41;5.70;99.90
22742;DHT22;11538;48.884;8.696;2023-02-12T05:31:09;5.70;99.90
22742;DHT22;11538;48.884;8.696;2023-02-12T05:33:42;5.70;99.90
22742;DHT22;11538;48.884;8.696;2023-02-12T05:36:12;5.70;99.90
22742;DHT22;11538;48.884;8.696;2023-02-12T05:38:41;5.70;99.90
22742;DHT22;11538;48.884;8.696;2023-02-12T05:41:12;5.70;99.90
22742;DHT22;11538;48.884;8.696;2023-02-12T05:43:44;5.70;99.90
22742;DHT22;11538;48.884;8.696;2023-02-12T05:46:15;5.70;99.90
22742;DHT22;11538;48.884;8.696;2023-02-12T05:48:43;5.70;99.90
22742;DHT22;11538;48.884;8.696;2023-02-12T05:51:11;5.70;99.90
22742;DHT22;11538;48.884;8.696;2023-02-12T05:53:40;5.70;99.90
22742;DHT22;11538;48.884;8.696;2023-02-12T05:58:36;5.70;99.90
22742;DHT22;11538;48.884;8.696;2023-02-12T06:01:07;5.70;99.90
22742;DHT22;11538;48.884;8.696;2023-02-12T06:03:36;5.70;99.90
22742;DHT22;11538;48.884;8.696;2023-02-12T06:06:03;5.70;99.90
22742;DHT22;11538;48.884;8.696;2023-02-12T06:08:30;5.70;99.90
22742;DHT22;11538;48.884;8.696;2023-02-12T06:11:01;5.70;99.90
22742;DHT22;11538;48.884;8.696;2023-02-12T06:13:29;5.70;99.90
22742;DHT22;11538;48.884;8.696;2023-02-12T06:15:56;5.70;99.90
22742;DHT22;11538;48.884;8.696;2023-02-12T06:18:25;5.60;99.90
22742;DHT22;11538;48.884;8.696;2023-02-12T06:20:52;5.60;99.90
22742;DHT22;11538;48.884;8.696;2023-02-12T06:23:22;5.60;99.90
22742;DHT22;11538;48.884;8.696;2023-02-12T06:25:50;5.70;99.90
22742;DHT22;11538;48.884;8.696;2023-02-12T06:28:21;5.60;99.90
22742;DHT22;11538;48.884;8.696;2023-02-12T06:30:48;5.70;99.90
22742;DHT22;11538;48.884;8.696;2023-02-12T06:33:15;5.70;99.90
22742;DHT22;11538;48.884;8.696;2023-02-12T06:35:42;5.60;99.90
22742;DHT22;11538;48.884;8.696;2023-02-12T06:38:09;5.60;99.90
22742;DHT22;11538;48.884;8.696;2023-02-12T06:40:35;5.60;99.90
22742;DHT22;11538;48.884;8.696;2023-02-12T06:43:02;5.60;99.90
22742;DHT22;11538;48.884;8.696;2023-02-12T06:45:29;5.70;99.90
22742;DHT22;11538;48.884;8.696;2023-02-12T06:47:56;5.70;99.90
22742;DHT22;11538;48.884;8.696;2023-02-12T06:50:23;5.70;99.90
22742;DHT22;11538;48.884;8.696;2023-02-12T06:52:50;5.60;99.90
22742;DHT22;11538;48.884;8.696;2023-02-12T06:55:17;5.70;99.90
22742;DHT22;11538;48.884;8.696;2023-02-12T06:57:43;5.70;99.90
22742;DHT22;11538;48.884;8.696;2023-02-12T07:00:10;5.70;99.90
22742;DHT22;11538;48.884;8.696;2023-02-12T07:02:37;5.70;99.90
22742;DHT22;11538;48.884;8.696;2023-02-12T07:05:04;5.70;99.90
22742;DHT22;11538;48.884;8.696;2023-02-12T07:07:32;5.70;99.90
22742;DHT22;11538;48.884;8.696;2023-02-12T07:09:59;5.80;99.90
22742;DHT22;11538;48.884;8.696;2023-02-12T07:12:25;5.80;99.90
22742;DHT22;11538;48.884;8.696;2023-02-12T07:14:52;5.80;99.90
22742;DHT22;11538;48.884;8.696;2023-02-12T07:17:19;5.90;99.90
22742;DHT22;11538;48.884;8.696;2023-02-12T07:19:46;5.90;99.90
22742;DHT22;11538;48.884;8.696;2023-02-12T07:22:12;5.90;99.90
22742;DHT22;11538;48.884;8.696;2023-02-12T07:24:39;5.90;99.90
22742;DHT22;11538;48.884;8.696;2023-02-12T07:27:06;6.00;99.90
22742;DHT22;11538;48.884;8.696;2023-02-12T07:29:33;6.00;99.90
22742;DHT22;11538;48.884;8.696;2023-02-12T07:31:59;6.00;99.90
22742;DHT22;11538;48.884;8.696;2023-02-12T07:34:26;6.00;99.90
22742;DHT22;11538;48.884;8.696;2023-02-12T07:36:53;6.00;99.90
22742;DHT22;11538;48.884;8.696;2023-02-12T07:39:20;6.10;99.90
22742;DHT22;11538;48.884;8.696;2023-02-12T07:41:49;6.10;99.90
22742;DHT22;11538;48.884;8.696;2023-02-12T07:44:17;6.10;99.90
22742;DHT22;11538;48.884;8.696;2023-02-12T07:46:46;6.10;99.90
22742;DHT22;11538;48.884;8.696;2023-02-12T07:49:15;6.10;99.90
22742;DHT22;11538;48.884;8.696;2023-02-12T07:51:43;6.10;99.90
22742;DHT22;11538;48.884;8.696;2023-02-12T07:54:10;6.20;99.90
22742;DHT22;11538;48.884;8.696;2023-02-12T07:56:38;6.20;99.90
22742;DHT22;11538;48.884;8.696;2023-02-12T07:59:10;6.20;99.90
22742;DHT22;11538;48.884;8.696;2023-02-12T08:01:39;6.20;99.90
22742;DHT22;11538;48.884;8.696;2023-02-12T08:04:10;6.20;99.90
22742;DHT22;11538;48.884;8.696;2023-02-12T08:06:39;6.20;99.90
22742;DHT22;11538;48.884;8.696;2023-02-12T08:09:09;6.30;99.90
22742;DHT22;11538;48.884;8.696;2023-02-12T08:11:37;6.30;99.90
22742;DHT22;11538;48.884;8.696;2023-02-12T08:14:05;6.30;99.90
22742;DHT22;11538;48.884;8.696;2023-02-12T08:16:37;6.40;99.90
22742;DHT22;11538;48.884;8.696;2023-02-12T08:19:06;6.40;99.90
22742;DHT22;11538;48.884;8.696;2023-02-12T08:21:48;6.40;99.90
22742;DHT22;11538;48.884;8.696;2023-02-12T08:24:15;6.40;99.90
22742;DHT22;11538;48.884;8.696;2023-02-12T08:26:42;6.50;99.90
22742;DHT22;11538;48.884;8.696;2023-02-12T08:29:12;6.50;99.90
22742;DHT22;11538;48.884;8.696;2023-02-12T08:31:42;6.60;99.90
22742;DHT22;11538;48.884;8.696;2023-02-12T08:34:18;6.60;99.90
22742;DHT22;11538;48.884;8.696;2023-02-12T08:36:50;6.70;99.90
22742;DHT22;11538;48.884;8.696;2023-02-12T08:39:19;6.70;99.90
22742;DHT22;11538;48.884;8.696;2023-02-12T08:41:46;6.80;99.90
22742;DHT22;11538;48.884;8.696;2023-02-12T08:44:14;6.80;99.90
22742;DHT22;11538;48.884;8.696;2023-02-12T08:46:42;6.90;99.90
22742;DHT22;11538;48.884;8.696;2023-02-12T08:49:16;6.90;99.90
22742;DHT22;11538;48.884;8.696;2023-02-12T08:51:45;7.00;99.90
22742;DHT22;11538;48.884;8.696;2023-02-12T08:54:16;7.00;99.90
22742;DHT22;11538;48.884;8.696;2023-02-12T08:56:48;7.10;99.90
22742;DHT22;11538;48.884;8.696;2023-02-12T08:59:15;7.20;99.90
22742;DHT22;11538;48.884;8.696;2023-02-12T09:01:43;7.30;99.90
22742;DHT22;11538;48.884;8.696;2023-02-12T09:04:12;7.40;99.90
22742;DHT22;11538;48.884;8.696;2023-02-12T09:06:43;7.40;99.90
22742;DHT22;11538;48.884;8.696;2023-02-12T09:09:11;7.50;99.90
22742;DHT22;11538;48.884;8.696;2023-02-12T09:11:39;7.50;99.90
22742;DHT22;11538;48.884;8.696;2023-02-12T09:14:09;7.50;99.90
22742;DHT22;11538;48.884;8.696;2023-02-12T09:16:37;7.60;99.90
22742;DHT22;11538;48.884;8.696;2023-02-12T09:19:06;7.60;99.90
22742;DHT22;11538;48.884;8.696;2023-02-12T09:21:34;7.70;99.90
22742;DHT22;11538;48.884;8.696;2023-02-12T09:24:01;7.70;99.90
22742;DHT22;11538;48.884;8.696;2023-02-12T09:26:29;7.70;99.90
22742;DHT22;11538;48.884;8.696;2023-02-12T09:28:56;7.80;99.90
22742;DHT22;11538;48.884;8.696;2023-02-12T09:31:27;7.80;99.90
22742;DHT22;11538;48.884;8.696;2023-02-12T09:34:00;7.80;99.90
22742;DHT22;11538;48.884;8.696;2023-02-12T09:36:29;7.90;99.90
22742;DHT22;11538;48.884;8.696;2023-02-12T09:38:57;7.90;99.90
22742;DHT22;11538;48.884;8.696;2023-02-12T09:47:02;8.00;99.90
22742;DHT22;11538;48.884;8.696;2023-02-12T09:52:36;8.10;99.90
22742;DHT22;11538;48.884;8.696;2023-02-12T09:55:03;8.10;99.90
22742;DHT22;11538;48.884;8.696;2023-02-12T09:57:31;8.10;99.90
22742;DHT22;11538;48.884;8.696;2023-02-12T10:00:03;8.10;99.90
22742;DHT22;11538;48.884;8.696;2023-02-12T10:02:34;8.10;99.90
22742;DHT22;11538;48.884;8.696;2023-02-12T10:05:03;8.20;99.90
22742;DHT22;11538;48.884;8.696;2023-02-12T10:10:09;8.20;99.90
22742;DHT22;11538;48.884;8.696;2023-02-12T10:12:48;8.20;99.90
22742;DHT22;11538;48.884;8.696;2023-02-12T10:26:17;8.40;99.90
22742;DHT22;11538;48.884;8.696;2023-02-12T10:28:48;8.40;99.90
22742;DHT22;11538;48.884;8.696;2023-02-12T10:31:18;8.50;99.90
22742;DHT22;11538;48.884;8.696;2023-02-12T10:33:56;8.50;99.90
22742;DHT22;11538;48.884;8.696;2023-02-12T10:36:27;8.60;99.90
22742;DHT22;11538;48.884;8.696;2023-02-12T10:39:10;8.70;99.90
22742;DHT22;11538;48.884;8.696;2023-02-12T10:41:59;8.70;99.90
22742;DHT22;11538;48.884;8.696;2023-02-12T10:44:31;8.80;99.90
22742;DHT22;11538;48.884;8.696;2023-02-12T10:46:58;8.80;99.90
22742;DHT22;11538;48.884;8.696;2023-02-12T10:49:25;8.80;99.90
22742;DHT22;11538;48.884;8.696;2023-02-12T10:54:32;8.90;99.90
22742;DHT22;11538;48.884;8.696;2023-02-12T10:57:03;8.90;99.90
22742;DHT22;11538;48.884;8.696;2023-02-12T10:59:47;9.00;99.90
22742;DHT22;11538;48.884;8.696;2023-02-12T11:04:52;9.00;99.90
22742;DHT22;11538;48.884;8.696;2023-02-12T11:07:21;9.10;99.90
22742;DHT22;11538;48.884;8.696;2023-02-12T11:09:49;9.10;99.90
22742;DHT22;11538;48.884;8.696;2023-02-12T11:12:18;9.10;99.90
22742;DHT22;11538;48.884;8.696;2023-02-12T11:14:54;9.10;99.90
22742;DHT22;11538;48.884;8.696;2023-02-12T11:17:37;9.10;99.90
22742;DHT22;11538;48.884;8.696;2023-02-12T11:22:51;9.20;99.90
22742;DHT22;11538;48.884;8.696;2023-02-12T11:25:21;9.20;99.90
22742;DHT22;11538;48.884;8.696;2023-02-12T11:27:59;9.20;99.90
22742;DHT22;11538;48.884;8.696;2023-02-12T11:33:39;9.20;99.90
22742;DHT22;11538;48.884;8.696;2023-02-12T11:36:22;9.20;99.90
22742;DHT22;11538;48.884;8.696;2023-02-12T11:38:52;9.20;99.90
22742;DHT22;11538;48.884;8.696;2023-02-12T11:41:22;9.20;99.90
22742;DHT22;11538;48.884;8.696;2023-02-12T11:43:56;9.20;99.90
22742;DHT22;11538;48.884;8.696;2023-02-12T11:46:24;9.20;99.90
22742;DHT22;11538;48.884;8.696;2023-02-12T11:48:53;9.30;99.90
22742;DHT22;11538;48.884;8.696;2023-02-12T11:51:26;9.30;99.90
22742;DHT22;11538;48.884;8.696;2023-02-12T11:53:59;9.30;99.90
22742;DHT22;11538;48.884;8.696;2023-02-12T11:56:44;9.30;99.90
22742;DHT22;11538;48.884;8.696;2023-02-12T12:02:17;9.30;99.90
22742;DHT22;11538;48.884;8.696;2023-02-12T12:04:52;9.40;99.90
22742;DHT22;11538;48.884;8.696;2023-02-12T12:07:24;9.40;99.90
22742;DHT22;11538;48.884;8.696;2023-02-12T12:09:58;9.50;99.90
22742;DHT22;11538;48.884;8.696;2023-02-12T12:12:49;9.50;99.90
22742;DHT22;11538;48.884;8.696;2023-02-12T12:15:21;9.60;99.90
22742;DHT22;11538;48.884;8.696;2023-02-12T12:21:19;9.60;99.90
22742;DHT22;11538;48.884;8.696;2023-02-12T12:26:29;10.00;99.90
22742;DHT22;11538;48.884;8.696;2023-02-12T12:29:01;10.20;99.90
22742;DHT22;11538;48.884;8.696;2023-02-12T12:31:40;10.40;99.90
22742;DHT22;11538;48.884;8.696;2023-02-12T12:34:10;10.60;99.90
22742;DHT22;11538;48.884;8.696;2023-02-12T12:44:47;11.20;99.90
22742;DHT22;11538;48.884;8.696;2023-02-12T12:53:17;12.50;99.90
22742;DHT22;11538;48.884;8.696;2023-02-12T12:56:06;13.00;99.90
22742;DHT22;11538;48.884;8.696;2023-02-12T13:01:31;13.90;99.90
22742;DHT22;11538;48.884;8.696;2023-02-12T13:07:07;14.70;99.90
22742;DHT22;11538;48.884;8.696;2023-02-12T13:12:43;15.20;99.90
22742;DHT22;11538;48.884;8.696;2023-02-12T13:15:36;15.40;99.90
22742;DHT22;11538;48.884;8.696;2023-02-12T13:18:19;15.50;99.90
22742;DHT22;11538;48.884;8.696;2023-02-12T13:23:42;15.60;99.90
22742;DHT22;11538;48.884;8.696;2023-02-12T13:29:08;15.80;99.90
22742;DHT22;11538;48.884;8.696;2023-02-12T13:34:52;16.00;99.90
22742;DHT22;11538;48.884;8.696;2023-02-12T13:37:54;16.20;99.90
22742;DHT22;11538;48.884;8.696;2023-02-12T13:40:21;16.20;99.90
22742;DHT22;11538;48.884;8.696;2023-02-12T13:43:00;16.30;99.90
22742;DHT22;11538;48.884;8.696;2023-02-12T13:51:28;16.50;99.90
22742;DHT22;11538;48.884;8.696;2023-02-12T13:56:52;16.60;99.90
22742;DHT22;11538;48.884;8.696;2023-02-12T14:05:02;16.80;99.90
22742;DHT22;11538;48.884;8.696;2023-02-12T14:07:41;16.70;99.90
22742;DHT22;11538;48.884;8.696;2023-02-12T14:10:18;16.70;99.90
22742;DHT22;11538;48.884;8.696;2023-02-12T14:12:47;16.60;99.90
22742;DHT22;11538;48.884;8.696;2023-02-12T14:17:55;16.30;99.90
22742;DHT22;11538;48.884;8.696;2023-02-12T14:20:31;16.20;99.90
22742;DHT22;11538;48.884;8.696;2023-02-12T14:23:01;15.90;99.90
22742;DHT22;11538;48.884;8.696;2023-02-12T14:25:34;15.50;99.90
22742;DHT22;11538;48.884;8.696;2023-02-12T14:33:48;14.20;99.90
22742;DHT22;11538;48.884;8.696;2023-02-12T14:39:00;13.60;99.90
22742;DHT22;11538;48.884;8.696;2023-02-12T14:41:35;13.30;99.90
22742;DHT22;11538;48.884;8.696;2023-02-12T14:46:53;12.80;99.90
22742;DHT22;11538;48.884;8.696;2023-02-12T14:54:42;12.30;99.90
22742;DHT22;11538;48.884;8.696;2023-02-12T14:57:30;12.20;99.90
22742;DHT22;11538;48.884;8.696;2023-02-12T15:03:00;11.90;99.90
22742;DHT22;11538;48.884;8.696;2023-02-12T15:14:02;11.40;99.90
22742;DHT22;11538;48.884;8.696;2023-02-12T15:16:43;11.30;99.90
22742;DHT22;11538;48.884;8.696;2023-02-12T15:22:28;11.20;99.90
22742;DHT22;11538;48.884;8.696;2023-02-12T15:25:26;11.10;99.90
22742;DHT22;11538;48.884;8.696;2023-02-12T15:28:12;11.00;99.90
22742;DHT22;11538;48.884;8.696;2023-02-12T15:30:46;10.90;99.90
22742;DHT22;11538;48.884;8.696;2023-02-12T15:33:28;10.90;99.90
22742;DHT22;11538;48.884;8.696;2023-02-12T15:35:58;10.80;99.90
22742;DHT22;11538;48.884;8.696;2023-02-12T15:38:31;10.80;99.90
22742;DHT22;11538;48.884;8.696;2023-02-12T15:41:01;10.70;99.90
22742;DHT22;11538;48.884;8.696;2023-02-12T15:43:32;10.70;99.90
22742;DHT22;11538;48.884;8.696;2023-02-12T15:46:05;10.60;99.90
22742;DHT22;11538;48.884;8.696;2023-02-12T15:48:41;10.60;99.90
22742;DHT22;11538;48.884;8.696;2023-02-12T15:51:20;10.50;99.90
22742;DHT22;11538;48.884;8.696;2023-02-12T15:53:52;10.50;99.90
22742;DHT22;11538;48.884;8.696;2023-02-12T15:56:22;10.50;99.90
22742;DHT22;11538;48.884;8.696;2023-02-12T15:58:52;10.40;99.90
22742;DHT22;11538;48.884;8.696;2023-02-12T16:01:24;10.30;99.90
22742;DHT22;11538;48.884;8.696;2023-02-12T16:04:00;10.30;99.90
22742;DHT22;11538;48.884;8.696;2023-02-12T16:06:31;10.30;99.90
22742;DHT22;11538;48.884;8.696;2023-02-12T16:09:07;10.30;99.90
22742;DHT22;11538;48.884;8.696;2023-02-12T16:11:44;10.20;99.90
22742;DHT22;11538;48.884;8.696;2023-02-12T16:17:20;10.10;99.90
22742;DHT22;11538;48.884;8.696;2023-02-12T16:22:44;10.00;99.90
22742;DHT22;11538;48.884;8.696;2023-02-12T16:25:22;10.00;99.90
22742;DHT22;11538;48.884;8.696;2023-02-12T16:28:16;10.00;99.90
22742;DHT22;11538;48.884;8.696;2023-02-12T16:30:50;9.90;99.90
22742;DHT22;11538;48.884;8.696;2023-02-12T16:36:29;9.80;99.90
22742;DHT22;11538;48.884;8.696;2023-02-12T16:39:04;9.70;99.90
22742;DHT22;11538;48.884;8.696;2023-02-12T16:41:54;9.70;99.90
22742;DHT22;11538;48.884;8.696;2023-02-12T16:44:24;9.70;99.90
22742;DHT22;11538;48.884;8.696;2023-02-12T16:46:55;9.60;99.90
22742;DHT22;11538;48.884;8.696;2023-02-12T16:49:25;9.60;99.90
22742;DHT22;11538;48.884;8.696;2023-02-12T16:52:17;9.50;99.90
22742;DHT22;11538;48.884;8.696;2023-02-12T16:54:54;9.50;99.90
22742;DHT22;11538;48.884;8.696;2023-02-12T16:57:20;9.40;99.90
22742;DHT22;11538;48.884;8.696;2023-02-12T16:59:47;9.30;99.90
22742;DHT22;11538;48.884;8.696;2023-02-12T17:02:15;9.30;99.90
22742;DHT22;11538;48.884;8.696;2023-02-12T17:04:42;9.20;99.90
22742;DHT22;11538;48.884;8.696;2023-02-12T17:07:23;9.10;99.90
22742;DHT22;11538;48.884;8.696;2023-02-12T17:09:54;9.00;99.90
22742;DHT22;11538;48.884;8.696;2023-02-12T17:12:23;9.00;99.90
22742;DHT22;11538;48.884;8.696;2023-02-12T17:14:51;8.90;99.90
22742;DHT22;11538;48.884;8.696;2023-02-12T17:17:18;8.80;99.90
22742;DHT22;11538;48.884;8.696;2023-02-12T17:19:45;8.80;99.90
22742;DHT22;11538;48.884;8.696;2023-02-12T17:22:17;8.70;99.90
22742;DHT22;11538;48.884;8.696;2023-02-12T17:24:47;8.60;99.90
22742;DHT22;11538;48.884;8.696;2023-02-12T17:27:17;8.50;99.90
22742;DHT22;11538;48.884;8.696;2023-02-12T17:29:45;8.40;99.90
22742;DHT22;11538;48.884;8.696;2023-02-12T17:32:12;8.40;99.90
22742;DHT22;11538;48.884;8.696;2023-02-12T17:34:39;8.30;99.90
22742;DHT22;11538;48.884;8.696;2023-02-12T17:37:15;8.20;99.90
22742;DHT22;11538;48.884;8.696;2023-02-12T17:39:43;8.20;99.90
22742;DHT22;11538;48.884;8.696;2023-02-12T17:42:10;8.10;99.90
22742;DHT22;11538;48.884;8.696;2023-02-12T17:44:38;8.10;99.90
22742;DHT22;11538;48.884;8.696;2023-02-12T17:47:05;8.00;99.90
22742;DHT22;11538;48.884;8.696;2023-02-12T17:49:32;7.90;99.90
22742;DHT22;11538;48.884;8.696;2023-02-12T17:52:01;7.90;99.90
22742;DHT22;11538;48.884;8.696;2023-02-12T17:54:32;7.90;99.90
22742;DHT22;11538;48.884;8.696;2023-02-12T17:56:59;7.80;99.90
22742;DHT22;11538;48.884;8.696;2023-02-12T17:59:26;7.70;99.90
22742;DHT22;11538;48.884;8.696;2023-02-12T18:01:53;7.60;99.90
22742;DHT22;11538;48.884;8.696;2023-02-12T18:04:21;7.60;99.90
22742;DHT22;11538;48.884;8.696;2023-02-12T18:06:48;7.50;99.90
22742;DHT22;11538;48.884;8.696;2023-02-12T18:09:15;7.40;99.90
22742;DHT22;11538;48.884;8.696;2023-02-12T18:11:42;7.40;99.90
22742;DHT22;11538;48.884;8.696;2023-02-12T18:14:10;7.40;99.90
22742;DHT22;11538;48.884;8.696;2023-02-12T18:16:37;7.30;99.90
22742;DHT22;11538;48.884;8.696;2023-02-12T18:19:08;7.20;99.90
22742;DHT22;11538;48.884;8.696;2023-02-12T18:21:35;7.20;99.90
22742;DHT22;11538;48.884;8.696;2023-02-12T18:24:03;7.10;99.90
22742;DHT22;11538;48.884;8.696;2023-02-12T18:26:31;7.10;99.90
22742;DHT22;11538;48.884;8.696;2023-02-12T18:28:59;7.10;99.90
22742;DHT22;11538;48.884;8.696;2023-02-12T18:31:27;7.00;99.90
22742;DHT22;11538;48.884;8.696;2023-02-12T18:33:55;7.00;99.90
22742;DHT22;11538;48.884;8.696;2023-02-12T18:36:22;6.90;99.90
22742;DHT22;11538;48.884;8.696;2023-02-12T18:38:50;6.90;99.90
22742;DHT22;11538;48.884;8.696;2023-02-12T18:41:23;6.90;99.90
22742;DHT22;11538;48.884;8.696;2023-02-12T18:43:52;6.80;99.90
22742;DHT22;11538;48.884;8.696;2023-02-12T18:46:22;6.80;99.90
22742;DHT22;11538;48.884;8.696;2023-02-12T18:48:51;6.70;99.90
22742;DHT22;11538;48.884;8.696;2023-02-12T18:51:21;6.70;99.90
22742;DHT22;11538;48.884;8.696;2023-02-12T18:53:58;6.70;99.90
22742;DHT22;11538;48.884;8.696;2023-02-12T18:56:34;6.60;99.90
22742;DHT22;11538;48.884;8.696;2023-02-12T18:59:04;6.50;99.90